createdAt,value
2019-02-04T00:01:22.580Z,1.78
2019-02-04T00:07:15.236Z,1.73
2019-02-04T00:10:06.220Z,1.60
2019-02-04T00:12:48.932Z,1.68
2019-02-04T00:19:07.969Z,1.70
2019-02-04T00:21:58.340Z,1.52
2019-02-04T00:25:02.963Z,1.51
2019-02-04T00:27:53.318Z,1.52
2019-02-04T00:30:36.079Z,1.60
2019-02-04T00:33:26.418Z,1.53
2019-02-04T00:36:30.646Z,1.49
2019-02-04T00:39:21.017Z,1.55
2019-02-04T00:42:04.319Z,1.56
2019-02-04T00:44:54.697Z,1.56
2019-02-04T00:47:59.606Z,1.51
2019-02-04T00:53:58.429Z,1.63
2019-02-04T00:56:48.792Z,1.57
2019-02-04T00:59:31.416Z,1.61
2019-02-04T01:02:21.823Z,1.70
2019-02-04T01:05:05.938Z,1.56
2019-02-04T01:11:24.805Z,1.49
2019-02-04T01:14:07.864Z,1.49
2019-02-04T01:17:03.379Z,1.44
2019-02-04T01:20:02.398Z,1.73
2019-02-04T01:22:52.866Z,1.64
2019-02-04T01:25:35.604Z,1.51
2019-02-04T01:28:26.003Z,1.49
2019-02-04T01:31:30.330Z,1.48
2019-02-04T01:34:20.711Z,1.44
2019-02-04T01:37:03.647Z,1.58
2019-02-04T01:39:54.005Z,1.56
2019-02-04T01:42:37.436Z,1.55
2019-02-04T01:45:27.802Z,1.43
2019-02-04T01:48:10.379Z,1.50
2019-02-04T01:51:00.745Z,1.55
2019-02-04T01:53:43.992Z,1.67
2019-02-04T01:56:34.316Z,1.52
2019-02-04T01:59:17.023Z,1.59
2019-02-04T02:02:07.770Z,1.56
2019-02-04T02:04:50.713Z,1.49
2019-02-04T02:07:41.069Z,1.36
2019-02-04T02:10:24.031Z,1.36
2019-02-04T02:13:14.440Z,1.41
2019-02-04T02:16:04.819Z,1.41
2019-02-04T02:18:48.290Z,1.40
2019-02-04T02:21:38.675Z,1.42
2019-02-04T02:24:21.701Z,1.42
2019-02-04T02:27:12.189Z,1.39
2019-02-04T02:29:55.580Z,1.42
2019-02-04T02:32:45.947Z,1.39
2019-02-04T02:35:28.513Z,1.42
2019-02-04T02:38:18.895Z,1.35
2019-02-04T02:41:01.449Z,1.33
2019-02-04T02:43:51.837Z,1.44
2019-02-04T02:46:34.984Z,1.48
2019-02-04T02:49:25.361Z,1.40
2019-02-04T02:52:09.108Z,1.39
2019-02-04T02:54:59.452Z,1.37
2019-02-04T02:57:42.510Z,1.38
2019-02-04T03:00:33.246Z,1.34
2019-02-04T03:03:16.380Z,1.34
2019-02-04T03:06:06.739Z,1.32
2019-02-04T03:08:49.471Z,1.28
2019-02-04T03:11:39.810Z,1.24
2019-02-04T03:14:23.089Z,1.31
2019-02-04T03:17:13.451Z,1.37
2019-02-04T03:20:18.286Z,1.29
2019-02-04T03:23:08.629Z,1.24
2019-02-04T03:25:51.415Z,1.25
2019-02-04T03:28:41.794Z,1.26
2019-02-04T03:31:25.147Z,1.43
2019-02-04T03:34:15.487Z,1.36
2019-02-04T03:36:59.060Z,1.36
2019-02-04T03:39:49.398Z,1.39
2019-02-04T03:42:32.363Z,1.34
2019-02-04T03:45:22.849Z,1.45
2019-02-04T03:48:25.683Z,1.43
2019-02-04T03:51:16.205Z,1.29
2019-02-04T03:53:59.311Z,1.35
2019-02-04T03:56:49.658Z,1.42
2019-02-04T03:59:32.553Z,1.27
2019-02-04T04:02:23.229Z,1.42
2019-02-04T04:05:13.795Z,1.42
2019-02-04T04:08:18.903Z,1.41
2019-02-04T04:14:11.442Z,1.43
2019-02-04T04:16:54.792Z,1.37
2019-02-04T04:19:45.169Z,1.47
2019-02-04T04:22:28.516Z,1.44
2019-02-04T04:28:47.557Z,1.39
2019-02-04T04:31:37.893Z,1.36
2019-02-04T04:34:42.465Z,1.48
2019-02-04T04:37:32.830Z,1.31
2019-02-04T04:40:16.114Z,1.48
2019-02-04T04:43:06.523Z,1.37
2019-02-04T04:45:49.997Z,1.45
2019-02-04T04:48:40.353Z,1.46
2019-02-04T04:51:23.553Z,1.43
2019-02-04T04:54:13.915Z,1.46
2019-02-04T04:56:57.035Z,1.44
2019-02-04T04:59:47.443Z,1.41
2019-02-04T05:02:30.115Z,1.33
2019-02-04T05:05:20.768Z,1.31
2019-02-04T05:08:03.956Z,1.33
2019-02-04T05:10:54.296Z,1.37
2019-02-04T05:13:37.440Z,1.33
2019-02-04T05:16:27.846Z,1.40
2019-02-04T05:19:10.989Z,1.37
2019-02-04T05:22:01.339Z,1.36
2019-02-04T05:25:06.320Z,1.28
2019-02-04T05:27:56.688Z,1.22
2019-02-04T05:30:40.148Z,1.26
2019-02-04T05:33:30.513Z,1.29
2019-02-04T05:36:13.541Z,1.20
2019-02-04T05:42:34.681Z,1.18
2019-02-04T05:45:25.119Z,1.15
2019-02-04T05:48:08.570Z,1.08
2019-02-04T05:50:58.931Z,1.07
2019-02-04T05:53:41.761Z,1.07
2019-02-04T05:56:32.127Z,1.10
2019-02-04T05:59:15.492Z,1.12
2019-02-04T06:02:09.514Z,1.04
2019-02-04T06:05:13.587Z,0.98
2019-02-04T06:08:04.896Z,1.01
2019-02-04T06:10:48.046Z,0.91
2019-02-04T06:13:38.419Z,0.98
2019-02-04T06:16:21.012Z,0.95
2019-02-04T06:19:04.063Z,0.91
2019-02-04T06:21:54.444Z,1.00
2019-02-04T06:24:37.012Z,0.95
2019-02-04T06:27:27.362Z,1.03
2019-02-04T06:30:10.710Z,0.98
2019-02-04T06:33:01.102Z,0.99
2019-02-04T06:36:06.117Z,0.91
2019-02-04T06:38:56.490Z,0.88
2019-02-04T06:41:39.566Z,0.93
2019-02-04T06:44:29.885Z,0.98
2019-02-04T06:47:34.941Z,1.00
2019-02-04T06:50:25.307Z,0.97
2019-02-04T06:53:08.314Z,0.95
2019-02-04T06:55:58.655Z,0.91
2019-02-04T06:59:03.182Z,1.01
2019-02-04T07:01:53.575Z,1.00
2019-02-04T07:04:36.451Z,0.93
2019-02-04T07:07:26.883Z,1.01
2019-02-04T07:10:31.733Z,1.03
2019-02-04T07:13:22.105Z,1.05
2019-02-04T07:16:05.248Z,0.99
2019-02-04T07:18:55.658Z,1.11
2019-02-04T07:22:00.707Z,1.15
2019-02-04T07:24:43.895Z,1.45
2019-02-04T07:27:34.265Z,1.69
2019-02-04T07:30:18.542Z,1.96
2019-02-04T07:33:08.893Z,2.24
2019-02-04T07:35:51.421Z,2.49
2019-02-04T07:38:41.771Z,2.73
2019-02-04T07:41:25.110Z,2.98
2019-02-04T07:44:15.465Z,3.20
2019-02-04T07:47:19.878Z,3.45
2019-02-04T07:50:10.266Z,3.73
2019-02-04T07:52:53.245Z,3.81
2019-02-04T07:55:43.622Z,3.76
2019-02-04T07:58:26.377Z,3.71
2019-02-04T08:01:16.735Z,3.54
2019-02-04T08:03:59.628Z,3.54
2019-02-04T08:06:49.966Z,3.45
2019-02-04T08:09:33.136Z,3.40
2019-02-04T08:12:23.482Z,3.15
2019-02-04T08:15:08.155Z,3.07
2019-02-04T08:17:58.896Z,2.96
2019-02-04T08:20:42.330Z,2.98
2019-02-04T08:23:25.134Z,3.12
2019-02-04T08:26:15.480Z,3.13
2019-02-04T08:28:58.295Z,3.34
2019-02-04T08:31:48.658Z,3.57
2019-02-04T08:34:31.263Z,3.80
2019-02-04T08:37:21.654Z,4.18
2019-02-04T08:40:05.014Z,4.84
2019-02-04T08:42:55.370Z,4.88
2019-02-04T08:45:37.957Z,5.37
2019-02-04T08:48:28.318Z,5.72
2019-02-04T08:51:33.159Z,6.14
2019-02-04T08:54:23.513Z,6.07
2019-02-04T08:57:06.075Z,5.56
2019-02-04T08:59:56.595Z,6.05
2019-02-04T09:02:39.181Z,6.06
2019-02-04T09:05:22.433Z,5.65
2019-02-04T09:08:12.773Z,5.53
2019-02-04T09:10:55.356Z,4.92
2019-02-04T09:13:45.756Z,4.68
2019-02-04T09:16:28.810Z,4.56
2019-02-04T09:19:19.156Z,4.71
2019-02-04T09:22:02.640Z,4.56
2019-02-04T09:24:52.995Z,4.36
2019-02-04T09:27:36.080Z,4.29
2019-02-04T09:30:26.859Z,4.02
2019-02-04T09:33:29.737Z,4.02
2019-02-04T09:36:20.100Z,4.20
2019-02-04T09:39:05.015Z,4.11
2019-02-04T09:41:55.370Z,3.81
2019-02-04T09:44:38.195Z,3.84
2019-02-04T09:47:28.553Z,3.60
2019-02-04T09:50:21.408Z,3.59
2019-02-04T09:56:34.622Z,3.54
2019-02-04T09:59:24.955Z,3.79
2019-02-04T10:02:08.058Z,3.79
2019-02-04T10:04:51.379Z,3.69
2019-02-04T10:07:41.717Z,3.67
2019-02-04T10:10:32.090Z,3.57
2019-02-04T10:13:14.875Z,3.66
2019-02-04T10:15:57.781Z,3.77
2019-02-04T10:18:48.104Z,3.65
2019-02-04T10:21:30.965Z,3.69
2019-02-04T10:24:21.335Z,3.61
2019-02-04T10:27:04.666Z,3.60
2019-02-04T10:29:55.666Z,3.68
2019-02-04T10:32:38.467Z,3.98
2019-02-04T10:35:28.842Z,4.00
2019-02-04T10:38:11.516Z,4.25
2019-02-04T10:41:01.948Z,4.36
2019-02-04T10:44:07.296Z,4.35
2019-02-04T10:46:57.674Z,4.58
2019-02-04T10:49:40.986Z,4.75
2019-02-04T10:52:31.363Z,4.78
2019-02-04T10:55:35.588Z,4.97
2019-02-04T10:58:25.990Z,4.83
2019-02-04T11:01:09.110Z,4.92
2019-02-04T11:03:59.425Z,4.98
2019-02-04T11:06:42.265Z,4.98
2019-02-04T11:09:32.629Z,5.08
2019-02-04T11:12:15.649Z,5.39
2019-02-04T11:15:46.073Z,5.55
2019-02-04T11:18:28.962Z,5.49
2019-02-04T11:21:19.316Z,5.51
2019-02-04T11:24:02.827Z,5.58
2019-02-04T11:26:53.208Z,5.82
2019-02-04T11:29:35.991Z,5.81
2019-02-04T11:32:26.379Z,5.83
2019-02-04T11:35:09.794Z,5.69
2019-02-04T11:37:53.172Z,5.43
2019-02-04T11:40:45.781Z,5.39
2019-02-04T11:43:48.396Z,5.39
2019-02-04T11:46:38.882Z,5.66
2019-02-04T11:49:21.424Z,5.69
2019-02-04T11:52:11.769Z,5.53
2019-02-04T11:55:15.966Z,5.61
2019-02-04T11:58:07.946Z,5.79
2019-02-04T12:01:11.708Z,5.66
2019-02-04T12:04:02.029Z,5.56
2019-02-04T12:06:45.316Z,5.64
2019-02-04T12:09:35.657Z,5.71
2019-02-04T12:12:19.041Z,5.61
2019-02-04T12:15:12.340Z,5.77
2019-02-04T12:17:55.792Z,5.74
2019-02-04T12:20:46.147Z,5.89
2019-02-04T12:23:29.570Z,6.09
2019-02-04T12:26:19.918Z,6.19
2019-02-04T12:29:23.240Z,6.10
2019-02-04T12:32:13.626Z,6.10
2019-02-04T12:34:56.483Z,6.22
2019-02-04T12:41:15.021Z,6.24
2019-02-04T12:50:49.185Z,5.95
2019-02-04T12:53:39.571Z,5.86
2019-02-04T12:56:22.920Z,5.79
2019-02-04T12:59:13.300Z,5.83
2019-02-04T13:01:56.279Z,5.83
2019-02-04T13:04:46.640Z,5.66
2019-02-04T13:07:29.413Z,5.67
2019-02-04T13:13:56.083Z,5.51
2019-02-04T13:16:38.923Z,5.51
2019-02-04T13:19:29.336Z,5.49
2019-02-04T13:22:12.648Z,5.53
2019-02-04T13:25:02.987Z,5.60
2019-02-04T13:28:12.420Z,5.48
2019-02-04T13:31:01.519Z,5.44
2019-02-04T13:33:44.155Z,5.36
2019-02-04T13:36:34.551Z,5.33
2019-02-04T13:39:38.739Z,5.33
2019-02-04T13:42:29.084Z,5.33
2019-02-04T13:45:13.969Z,5.34
2019-02-04T13:50:57.468Z,5.21
2019-02-04T13:53:47.924Z,5.35
2019-02-04T13:56:38.291Z,5.23
2019-02-04T13:59:21.365Z,5.20
2019-02-04T14:02:13.509Z,5.15
2019-02-04T14:05:16.400Z,5.07
2019-02-04T14:07:59.230Z,5.11
2019-02-04T14:10:49.564Z,5.23
2019-02-04T14:16:36.755Z,5.27
2019-02-04T14:19:27.287Z,5.28
2019-02-04T14:22:10.505Z,5.21
2019-02-04T14:25:00.850Z,5.12
2019-02-04T14:27:43.737Z,5.19
2019-02-04T14:33:58.183Z,5.09
2019-02-04T14:37:00.896Z,5.00
2019-02-04T14:39:51.269Z,5.09
2019-02-04T14:42:34.333Z,5.08
2019-02-04T14:45:45.062Z,5.02
2019-02-04T14:48:49.963Z,5.10
2019-02-04T14:52:20.762Z,5.08
2019-02-04T14:55:32.205Z,5.06
2019-02-04T14:59:00.634Z,5.05
2019-02-04T15:02:29.058Z,5.08
2019-02-04T15:05:16.120Z,4.95
2019-02-04T15:08:18.507Z,4.93
2019-02-04T15:11:40.954Z,5.02
2019-02-04T15:14:31.717Z,5.05
2019-02-04T15:17:53.940Z,5.07
2019-02-04T15:21:08.389Z,5.01
2019-02-04T15:24:36.841Z,4.91
2019-02-04T15:27:39.280Z,4.87
2019-02-04T15:30:52.534Z,4.86
2019-02-04T15:34:15.822Z,4.90
2019-02-04T15:38:05.866Z,4.91
2019-02-04T15:40:54.886Z,4.93
2019-02-04T15:44:23.318Z,4.84
2019-02-04T15:47:11.477Z,4.86
2019-02-04T15:50:39.896Z,4.85
2019-02-04T15:53:22.582Z,4.87
2019-02-04T15:56:12.963Z,4.83
2019-02-04T15:58:56.102Z,4.85
2019-02-04T16:01:46.630Z,4.86
2019-02-04T16:04:51.616Z,4.83
2019-02-04T16:07:42.015Z,4.82
2019-02-04T16:10:32.376Z,4.74
2019-02-04T16:13:15.858Z,4.70
2019-02-04T16:16:09.029Z,4.68
2019-02-04T16:18:51.865Z,4.69
2019-02-04T16:21:42.309Z,4.61
2019-02-04T16:24:32.755Z,4.73
2019-02-04T16:27:35.358Z,4.60
2019-02-04T16:30:25.787Z,4.59
2019-02-04T16:33:30.881Z,4.59
2019-02-04T16:36:21.278Z,4.55
2019-02-04T16:39:06.616Z,4.58
2019-02-04T16:41:49.252Z,4.55
2019-02-04T16:44:39.768Z,4.58
2019-02-04T16:47:23.236Z,4.52
2019-02-04T16:51:10.955Z,4.50
2019-02-04T16:54:02.658Z,4.46
2019-02-04T16:56:53.120Z,4.49
2019-02-04T16:59:36.352Z,4.52
2019-02-04T17:02:26.786Z,4.52
2019-02-04T17:05:10.121Z,4.51
2019-02-04T17:08:19.443Z,4.50
2019-02-04T17:11:02.729Z,4.52
2019-02-04T17:13:53.121Z,4.53
2019-02-04T17:16:36.823Z,4.44
2019-02-04T17:19:47.647Z,4.52
2019-02-04T17:22:52.982Z,4.50
2019-02-04T17:25:43.882Z,4.58
2019-02-04T17:28:27.713Z,4.59
2019-02-04T17:31:18.146Z,4.53
2019-02-04T17:34:25.017Z,4.45
2019-02-04T17:37:15.424Z,4.53
2019-02-04T17:39:58.386Z,4.54
2019-02-04T17:42:51.480Z,4.53
2019-02-04T17:45:54.410Z,4.45
2019-02-04T17:48:44.826Z,4.51
2019-02-04T17:51:31.829Z,4.43
2019-02-04T17:54:20.817Z,4.42
2019-02-04T17:57:06.009Z,4.41
2019-02-04T17:59:56.326Z,4.41
2019-02-04T18:02:39.310Z,4.37
2019-02-04T18:05:29.701Z,4.41
2019-02-04T18:08:12.931Z,4.34
2019-02-04T18:14:27.185Z,4.38
2019-02-04T18:17:36.568Z,4.42
2019-02-04T18:20:19.796Z,4.36
2019-02-04T18:23:11.305Z,4.43
2019-02-04T18:26:15.064Z,4.33
2019-02-04T18:32:12.003Z,4.43
2019-02-04T18:35:02.462Z,4.43
2019-02-04T18:37:45.352Z,4.44
2019-02-04T18:40:35.743Z,4.42
2019-02-04T18:43:18.757Z,4.40
2019-02-04T18:46:09.202Z,4.43
2019-02-04T18:49:13.518Z,4.39
2019-02-04T18:52:04.046Z,4.39
2019-02-04T18:55:10.277Z,4.44
2019-02-04T18:58:11.370Z,4.44
2019-02-04T19:01:01.796Z,4.45
2019-02-04T19:03:45.202Z,4.38
2019-02-04T19:06:47.149Z,4.43
2019-02-04T19:09:40.331Z,4.42
2019-02-04T19:12:30.717Z,4.48
2019-02-04T19:15:14.934Z,4.46
2019-02-04T19:18:09.882Z,4.38
2019-02-04T19:20:41.277Z,4.42
2019-02-04T19:23:31.718Z,4.34
2019-02-04T19:26:43.700Z,4.39
2019-02-04T19:29:27.161Z,4.42
2019-02-04T19:32:17.557Z,4.36
2019-02-04T19:35:00.905Z,4.38
2019-02-04T19:37:35.266Z,4.29
2019-02-04T19:40:25.678Z,4.38
2019-02-04T19:43:15.501Z,4.33
2019-02-04T19:45:58.815Z,4.34
2019-02-04T19:48:49.264Z,4.33
2019-02-04T19:51:32.363Z,4.25
2019-02-04T19:54:22.832Z,4.27
2019-02-04T19:57:06.649Z,4.25
2019-02-04T20:00:11.843Z,4.19
2019-02-04T20:03:02.257Z,4.27
2019-02-04T20:05:45.257Z,4.20
2019-02-04T20:08:35.671Z,4.20
2019-02-04T20:11:46.798Z,4.20
2019-02-04T20:14:51.653Z,4.21
2019-02-04T20:17:42.070Z,4.30
2019-02-04T20:20:25.235Z,4.24
2019-02-04T20:23:18.080Z,4.26
2019-02-04T20:26:21.204Z,4.17
2019-02-04T20:29:11.602Z,4.29
2019-02-04T20:31:54.390Z,4.25
2019-02-04T20:34:44.808Z,4.23
2019-02-04T20:37:49.431Z,4.32
2019-02-04T20:40:40.000Z,4.25
2019-02-04T20:43:22.543Z,4.30
2019-02-04T20:46:13.441Z,4.30
2019-02-04T20:48:56.825Z,4.40
2019-02-04T20:51:47.333Z,4.40
2019-02-04T20:54:30.087Z,4.34
2019-02-04T20:57:20.538Z,4.39
2019-02-04T21:00:04.095Z,4.36
2019-02-04T21:02:54.779Z,4.42
2019-02-04T21:05:37.767Z,4.33
2019-02-04T21:08:28.264Z,4.34
2019-02-04T21:11:11.690Z,4.29
2019-02-04T21:14:02.925Z,4.30
2019-02-04T21:17:07.118Z,4.27
2019-02-04T21:19:57.479Z,4.34
2019-02-04T21:22:40.145Z,4.34
2019-02-04T21:25:30.510Z,4.25
2019-02-04T21:28:13.187Z,4.41
2019-02-04T21:31:03.548Z,4.29
2019-02-04T21:33:47.042Z,4.34
2019-02-04T21:36:37.419Z,4.35
2019-02-04T21:39:20.970Z,4.39
2019-02-04T21:42:11.326Z,4.36
2019-02-04T21:44:54.099Z,4.26
2019-02-04T21:47:44.748Z,4.15
2019-02-04T21:50:28.221Z,4.18
2019-02-04T21:53:18.606Z,4.23
2019-02-04T21:56:21.658Z,4.08
2019-02-04T21:59:32.369Z,4.11
2019-02-04T22:02:15.710Z,4.10
2019-02-04T22:05:08.317Z,4.15
2019-02-04T22:07:51.074Z,4.11
2019-02-04T22:10:35.037Z,4.08
2019-02-04T22:13:25.778Z,4.13
2019-02-04T22:16:09.174Z,4.16
2019-02-04T22:18:59.541Z,4.13
2019-02-04T22:21:42.331Z,4.12
2019-02-04T22:24:32.773Z,4.15
2019-02-04T22:27:15.735Z,4.14
2019-02-04T22:33:54.743Z,4.12
2019-02-04T22:36:45.499Z,4.05
2019-02-04T22:39:49.957Z,4.07
2019-02-04T22:42:40.292Z,3.98
2019-02-04T22:45:43.559Z,4.05
2019-02-04T22:48:33.927Z,3.95
2019-02-04T22:51:17.185Z,3.97
2019-02-04T22:54:07.543Z,3.99
2019-02-04T22:57:10.568Z,4.00
2019-02-04T23:00:00.913Z,3.98
2019-02-04T23:02:43.972Z,3.87
2019-02-04T23:05:34.366Z,3.82
2019-02-04T23:08:17.333Z,3.84
2019-02-04T23:11:00.136Z,3.77
2019-02-04T23:13:50.512Z,3.81
2019-02-04T23:16:33.315Z,3.84
2019-02-04T23:19:23.668Z,3.81
2019-02-04T23:22:06.522Z,3.89
2019-02-04T23:24:56.908Z,3.82
2019-02-04T23:27:40.432Z,3.65
2019-02-04T23:30:30.794Z,3.64
2019-02-04T23:33:13.890Z,3.53
2019-02-04T23:36:15.616Z,3.50
2019-02-04T23:42:56.026Z,3.53
2019-02-04T23:45:46.428Z,3.55
2019-02-04T23:48:36.797Z,3.54
2019-02-04T23:51:19.679Z,3.34
2019-02-04T23:54:10.109Z,3.39
2019-02-04T23:56:52.707Z,3.36
2019-02-04T23:59:43.084Z,3.30
